Terminal Aerodrome Forecast
Issued by NWS

Home | Current Version | Previous Version | Text Only | Print | Product List | Glossary On
Versions: 1 2 3 4 5 6 7 8 9 10 11 12 13 14
254
FTUS43 KILX 251939 AAA
TAFBMI
TAF AMD
KBMI 251939Z 2520/2618 19017G25KT P6SM SCT035 BKN150
     FM252100 19016G23KT P6SM VCTS SCT040CB BKN120
     FM260100 18009KT P6SM BKN040 BKN120
     FM261200 19011KT P6SM VCTS BKN045CB=

USA.gov is the U.S. government's official web portal to all federal, state and local government web resources and services.